sensor_id;sensor_type;location;lat;lon;timestamp;P1;durP1;ratioP1;P2;durP2;ratioP2
74793;SDS011;63320;50.768;6.724;2024-01-27T00:00:27;11.90;;;2.35;;
74793;SDS011;63320;50.768;6.724;2024-01-27T00:02:53;11.02;;;1.80;;
74793;SDS011;63320;50.768;6.724;2024-01-27T00:05:18;15.48;;;2.63;;
74793;SDS011;63320;50.768;6.724;2024-01-27T00:07:43;11.60;;;2.00;;
74793;SDS011;63320;50.768;6.724;2024-01-27T00:10:09;14.65;;;2.67;;
74793;SDS011;63320;50.768;6.724;2024-01-27T00:12:34;18.70;;;2.88;;
74793;SDS011;63320;50.768;6.724;2024-01-27T00:15:01;10.63;;;2.03;;
74793;SDS011;63320;50.768;6.724;2024-01-27T00:17:26;12.68;;;2.30;;
74793;SDS011;63320;50.768;6.724;2024-01-27T00:19:51;10.38;;;2.15;;
74793;SDS011;63320;50.768;6.724;2024-01-27T00:22:17;10.40;;;1.90;;
74793;SDS011;63320;50.768;6.724;2024-01-27T00:24:42;9.15;;;2.58;;
74793;SDS011;63320;50.768;6.724;2024-01-27T00:27:07;11.23;;;1.77;;
74793;SDS011;63320;50.768;6.724;2024-01-27T00:29:33;16.25;;;2.17;;
74793;SDS011;63320;50.768;6.724;2024-01-27T00:32:00;9.88;;;2.03;;
74793;SDS011;63320;50.768;6.724;2024-01-27T00:34:25;13.50;;;2.50;;
74793;SDS011;63320;50.768;6.724;2024-01-27T00:36:50;10.40;;;2.33;;
74793;SDS011;63320;50.768;6.724;2024-01-27T00:39:16;10.80;;;2.10;;
74793;SDS011;63320;50.768;6.724;2024-01-27T00:41:43;13.27;;;1.67;;
74793;SDS011;63320;50.768;6.724;2024-01-27T00:44:08;9.57;;;2.20;;
74793;SDS011;63320;50.768;6.724;2024-01-27T00:46:33;14.10;;;2.40;;
74793;SDS011;63320;50.768;6.724;2024-01-27T00:49:00;11.48;;;1.98;;
74793;SDS011;63320;50.768;6.724;2024-01-27T00:51:25;9.82;;;1.80;;
74793;SDS011;63320;50.768;6.724;2024-01-27T00:53:51;12.30;;;1.95;;
74793;SDS011;63320;50.768;6.724;2024-01-27T00:56:16;17.92;;;2.65;;
74793;SDS011;63320;50.768;6.724;2024-01-27T00:58:41;15.90;;;3.38;;
74793;SDS011;63320;50.768;6.724;2024-01-27T01:01:07;13.57;;;3.53;;
74793;SDS011;63320;50.768;6.724;2024-01-27T01:03:32;21.73;;;5.65;;
74793;SDS011;63320;50.768;6.724;2024-01-27T01:05:59;34.42;;;8.18;;
74793;SDS011;63320;50.768;6.724;2024-01-27T01:08:24;29.75;;;6.35;;
74793;SDS011;63320;50.768;6.724;2024-01-27T01:10:50;15.30;;;3.63;;
74793;SDS011;63320;50.768;6.724;2024-01-27T01:13:15;16.08;;;3.22;;
74793;SDS011;63320;50.768;6.724;2024-01-27T01:15:40;12.68;;;3.53;;
74793;SDS011;63320;50.768;6.724;2024-01-27T01:18:06;14.25;;;4.38;;
74793;SDS011;63320;50.768;6.724;2024-01-27T01:20:31;14.50;;;3.90;;
74793;SDS011;63320;50.768;6.724;2024-01-27T01:22:58;13.40;;;3.47;;
74793;SDS011;63320;50.768;6.724;2024-01-27T01:25:23;11.68;;;2.83;;
74793;SDS011;63320;50.768;6.724;2024-01-27T01:27:48;11.20;;;2.53;;
74793;SDS011;63320;50.768;6.724;2024-01-27T01:30:14;13.63;;;2.22;;
74793;SDS011;63320;50.768;6.724;2024-01-27T01:32:39;9.15;;;2.40;;
74793;SDS011;63320;50.768;6.724;2024-01-27T01:35:05;11.13;;;2.25;;
74793;SDS011;63320;50.768;6.724;2024-01-27T01:37:31;14.38;;;2.38;;
74793;SDS011;63320;50.768;6.724;2024-01-27T01:39:57;10.38;;;1.90;;
74793;SDS011;63320;50.768;6.724;2024-01-27T01:42:23;14.00;;;2.10;;
74793;SDS011;63320;50.768;6.724;2024-01-27T01:44:48;9.70;;;2.13;;
74793;SDS011;63320;50.768;6.724;2024-01-27T01:47:13;11.60;;;1.92;;
74793;SDS011;63320;50.768;6.724;2024-01-27T01:49:39;9.40;;;2.25;;
74793;SDS011;63320;50.768;6.724;2024-01-27T01:52:05;12.23;;;2.28;;
74793;SDS011;63320;50.768;6.724;2024-01-27T01:54:31;8.38;;;1.88;;
74793;SDS011;63320;50.768;6.724;2024-01-27T01:56:58;16.25;;;3.47;;
74793;SDS011;63320;50.768;6.724;2024-01-27T01:59:23;11.05;;;1.80;;
74793;SDS011;63320;50.768;6.724;2024-01-27T02:01:48;11.68;;;1.85;;
74793;SDS011;63320;50.768;6.724;2024-01-27T02:04:14;8.32;;;2.35;;
74793;SDS011;63320;50.768;6.724;2024-01-27T02:06:39;11.88;;;1.88;;
74793;SDS011;63320;50.768;6.724;2024-01-27T02:09:04;8.82;;;1.67;;
74793;SDS011;63320;50.768;6.724;2024-01-27T02:11:30;10.43;;;1.80;;
74793;SDS011;63320;50.768;6.724;2024-01-27T02:13:57;13.00;;;2.00;;
74793;SDS011;63320;50.768;6.724;2024-01-27T02:16:22;10.13;;;1.77;;
74793;SDS011;63320;50.768;6.724;2024-01-27T02:18:47;13.05;;;2.08;;
74793;SDS011;63320;50.768;6.724;2024-01-27T02:21:13;9.80;;;2.15;;
74793;SDS011;63320;50.768;6.724;2024-01-27T02:23:38;13.75;;;1.70;;
74793;SDS011;63320;50.768;6.724;2024-01-27T02:26:05;11.98;;;2.03;;
74793;SDS011;63320;50.768;6.724;2024-01-27T02:28:30;11.20;;;1.90;;
74793;SDS011;63320;50.768;6.724;2024-01-27T02:30:55;10.60;;;2.30;;
74793;SDS011;63320;50.768;6.724;2024-01-27T02:33:21;10.55;;;1.88;;
74793;SDS011;63320;50.768;6.724;2024-01-27T02:35:46;15.48;;;3.15;;
74793;SDS011;63320;50.768;6.724;2024-01-27T02:38:11;11.57;;;1.73;;
74793;SDS011;63320;50.768;6.724;2024-01-27T02:40:37;10.27;;;2.00;;
74793;SDS011;63320;50.768;6.724;2024-01-27T02:43:03;11.57;;;1.70;;
74793;SDS011;63320;50.768;6.724;2024-01-27T02:45:29;9.98;;;1.92;;
74793;SDS011;63320;50.768;6.724;2024-01-27T02:47:54;9.45;;;1.95;;
74793;SDS011;63320;50.768;6.724;2024-01-27T02:50:19;10.70;;;2.17;;
74793;SDS011;63320;50.768;6.724;2024-01-27T02:52:45;11.82;;;2.40;;
74793;SDS011;63320;50.768;6.724;2024-01-27T02:55:10;11.23;;;1.77;;
74793;SDS011;63320;50.768;6.724;2024-01-27T02:57:35;7.55;;;1.13;;
74793;SDS011;63320;50.768;6.724;2024-01-27T03:00:02;12.93;;;1.83;;
74793;SDS011;63320;50.768;6.724;2024-01-27T03:02:28;12.52;;;2.03;;
74793;SDS011;63320;50.768;6.724;2024-01-27T03:04:53;7.40;;;1.83;;
74793;SDS011;63320;50.768;6.724;2024-01-27T03:07:19;14.20;;;1.90;;
74793;SDS011;63320;50.768;6.724;2024-01-27T03:09:44;13.32;;;2.00;;
74793;SDS011;63320;50.768;6.724;2024-01-27T03:12:09;11.45;;;1.85;;
74793;SDS011;63320;50.768;6.724;2024-01-27T03:14:35;9.05;;;1.70;;
74793;SDS011;63320;50.768;6.724;2024-01-27T03:17:01;12.30;;;2.00;;
74793;SDS011;63320;50.768;6.724;2024-01-27T03:19:27;9.88;;;2.40;;
74793;SDS011;63320;50.768;6.724;2024-01-27T03:21:52;12.07;;;1.70;;
74793;SDS011;63320;50.768;6.724;2024-01-27T03:24:17;9.88;;;1.80;;
74793;SDS011;63320;50.768;6.724;2024-01-27T03:26:43;10.65;;;2.28;;
74793;SDS011;63320;50.768;6.724;2024-01-27T03:29:08;10.18;;;1.25;;
74793;SDS011;63320;50.768;6.724;2024-01-27T03:31:33;7.95;;;1.67;;
74793;SDS011;63320;50.768;6.724;2024-01-27T03:34:00;11.18;;;1.55;;
74793;SDS011;63320;50.768;6.724;2024-01-27T03:36:26;10.40;;;1.67;;
74793;SDS011;63320;50.768;6.724;2024-01-27T03:38:52;11.10;;;1.73;;
74793;SDS011;63320;50.768;6.724;2024-01-27T03:41:18;13.10;;;1.77;;
74793;SDS011;63320;50.768;6.724;2024-01-27T03:43:43;6.05;;;1.23;;
74793;SDS011;63320;50.768;6.724;2024-01-27T03:46:09;10.65;;;1.65;;
74793;SDS011;63320;50.768;6.724;2024-01-27T03:48:34;9.70;;;1.50;;
74793;SDS011;63320;50.768;6.724;2024-01-27T03:51:01;7.80;;;1.30;;
74793;SDS011;63320;50.768;6.724;2024-01-27T03:53:26;13.35;;;2.22;;
74793;SDS011;63320;50.768;6.724;2024-01-27T03:55:52;12.45;;;1.98;;
74793;SDS011;63320;50.768;6.724;2024-01-27T03:58:17;12.48;;;1.83;;
74793;SDS011;63320;50.768;6.724;2024-01-27T04:00:42;10.70;;;1.67;;
74793;SDS011;63320;50.768;6.724;2024-01-27T04:03:08;12.90;;;1.80;;
74793;SDS011;63320;50.768;6.724;2024-01-27T04:05:33;9.27;;;2.00;;
74793;SDS011;63320;50.768;6.724;2024-01-27T04:08:00;7.53;;;1.40;;
74793;SDS011;63320;50.768;6.724;2024-01-27T04:10:25;14.73;;;1.73;;
74793;SDS011;63320;50.768;6.724;2024-01-27T04:12:51;12.98;;;1.80;;
74793;SDS011;63320;50.768;6.724;2024-01-27T04:15:16;11.02;;;2.17;;
74793;SDS011;63320;50.768;6.724;2024-01-27T04:17:41;13.38;;;2.05;;
74793;SDS011;63320;50.768;6.724;2024-01-27T04:20:07;9.15;;;1.85;;
74793;SDS011;63320;50.768;6.724;2024-01-27T04:22:33;11.35;;;1.90;;
74793;SDS011;63320;50.768;6.724;2024-01-27T04:25:00;11.40;;;2.78;;
74793;SDS011;63320;50.768;6.724;2024-01-27T04:27:26;9.48;;;1.45;;
74793;SDS011;63320;50.768;6.724;2024-01-27T04:29:52;10.77;;;1.88;;
74793;SDS011;63320;50.768;6.724;2024-01-27T04:32:17;11.13;;;1.38;;
74793;SDS011;63320;50.768;6.724;2024-01-27T04:34:43;10.55;;;1.60;;
74793;SDS011;63320;50.768;6.724;2024-01-27T04:37:08;7.70;;;1.60;;
74793;SDS011;63320;50.768;6.724;2024-01-27T04:39:33;9.55;;;1.55;;
74793;SDS011;63320;50.768;6.724;2024-01-27T04:42:00;10.75;;;1.40;;
74793;SDS011;63320;50.768;6.724;2024-01-27T04:44:26;10.02;;;1.83;;
74793;SDS011;63320;50.768;6.724;2024-01-27T04:46:52;11.48;;;2.10;;
74793;SDS011;63320;50.768;6.724;2024-01-27T04:49:17;10.38;;;1.73;;
74793;SDS011;63320;50.768;6.724;2024-01-27T04:51:42;8.63;;;1.73;;
74793;SDS011;63320;50.768;6.724;2024-01-27T04:54:08;9.23;;;1.35;;
74793;SDS011;63320;50.768;6.724;2024-01-27T04:56:33;10.35;;;1.70;;
74793;SDS011;63320;50.768;6.724;2024-01-27T04:59:00;12.65;;;1.92;;
74793;SDS011;63320;50.768;6.724;2024-01-27T05:01:25;10.48;;;1.80;;
74793;SDS011;63320;50.768;6.724;2024-01-27T05:03:51;8.98;;;1.33;;
74793;SDS011;63320;50.768;6.724;2024-01-27T05:06:16;8.52;;;1.30;;
74793;SDS011;63320;50.768;6.724;2024-01-27T05:08:41;7.80;;;1.52;;
74793;SDS011;63320;50.768;6.724;2024-01-27T05:11:07;10.25;;;1.65;;
74793;SDS011;63320;50.768;6.724;2024-01-27T05:13:32;14.30;;;1.40;;
74793;SDS011;63320;50.768;6.724;2024-01-27T05:15:59;12.52;;;1.77;;
74793;SDS011;63320;50.768;6.724;2024-01-27T05:18:24;10.85;;;1.75;;
74793;SDS011;63320;50.768;6.724;2024-01-27T05:20:49;12.40;;;1.83;;
74793;SDS011;63320;50.768;6.724;2024-01-27T05:23:14;11.55;;;2.00;;
74793;SDS011;63320;50.768;6.724;2024-01-27T05:25:40;13.23;;;2.10;;
74793;SDS011;63320;50.768;6.724;2024-01-27T05:28:05;11.77;;;2.15;;
74793;SDS011;63320;50.768;6.724;2024-01-27T05:30:31;13.10;;;1.83;;
74793;SDS011;63320;50.768;6.724;2024-01-27T05:32:57;13.85;;;1.80;;
74793;SDS011;63320;50.768;6.724;2024-01-27T05:35:23;9.38;;;1.77;;
74793;SDS011;63320;50.768;6.724;2024-01-27T05:37:48;11.80;;;1.80;;
74793;SDS011;63320;50.768;6.724;2024-01-27T05:40:13;8.80;;;1.52;;
74793;SDS011;63320;50.768;6.724;2024-01-27T05:42:39;10.75;;;1.80;;
74793;SDS011;63320;50.768;6.724;2024-01-27T05:45:05;9.82;;;1.65;;
74793;SDS011;63320;50.768;6.724;2024-01-27T05:47:31;11.00;;;1.70;;
74793;SDS011;63320;50.768;6.724;2024-01-27T05:49:59;9.23;;;1.50;;
74793;SDS011;63320;50.768;6.724;2024-01-27T05:52:24;10.35;;;2.22;;
74793;SDS011;63320;50.768;6.724;2024-01-27T05:54:49;8.70;;;1.83;;
74793;SDS011;63320;50.768;6.724;2024-01-27T05:57:15;10.48;;;1.85;;
74793;SDS011;63320;50.768;6.724;2024-01-27T05:59:40;11.90;;;2.13;;
74793;SDS011;63320;50.768;6.724;2024-01-27T06:02:05;7.57;;;1.80;;
74793;SDS011;63320;50.768;6.724;2024-01-27T06:04:31;12.55;;;2.20;;
74793;SDS011;63320;50.768;6.724;2024-01-27T06:06:57;12.25;;;2.97;;
74793;SDS011;63320;50.768;6.724;2024-01-27T06:09:23;10.65;;;2.47;;
74793;SDS011;63320;50.768;6.724;2024-01-27T06:11:48;10.60;;;2.22;;
74793;SDS011;63320;50.768;6.724;2024-01-27T06:14:13;11.18;;;1.92;;
74793;SDS011;63320;50.768;6.724;2024-01-27T06:16:38;10.63;;;2.75;;
74793;SDS011;63320;50.768;6.724;2024-01-27T06:19:04;6.97;;;2.17;;
74793;SDS011;63320;50.768;6.724;2024-01-27T06:21:29;9.43;;;1.80;;
74793;SDS011;63320;50.768;6.724;2024-01-27T06:23:56;12.07;;;2.25;;
74793;SDS011;63320;50.768;6.724;2024-01-27T06:26:21;12.02;;;1.92;;
74793;SDS011;63320;50.768;6.724;2024-01-27T06:28:46;12.55;;;2.13;;
74793;SDS011;63320;50.768;6.724;2024-01-27T06:31:12;9.13;;;1.50;;
74793;SDS011;63320;50.768;6.724;2024-01-27T06:33:37;10.70;;;2.17;;
74793;SDS011;63320;50.768;6.724;2024-01-27T06:36:03;13.10;;;2.65;;
74793;SDS011;63320;50.768;6.724;2024-01-27T06:38:29;10.05;;;2.08;;
74793;SDS011;63320;50.768;6.724;2024-01-27T06:40:55;12.68;;;2.78;;
74793;SDS011;63320;50.768;6.724;2024-01-27T06:43:21;14.85;;;3.10;;
74793;SDS011;63320;50.768;6.724;2024-01-27T06:45:46;9.10;;;2.38;;
74793;SDS011;63320;50.768;6.724;2024-01-27T06:48:11;14.07;;;2.85;;
74793;SDS011;63320;50.768;6.724;2024-01-27T06:50:37;12.20;;;2.63;;
74793;SDS011;63320;50.768;6.724;2024-01-27T06:53:02;9.80;;;2.42;;
74793;SDS011;63320;50.768;6.724;2024-01-27T06:55:28;14.40;;;3.20;;
74793;SDS011;63320;50.768;6.724;2024-01-27T06:57:54;14.40;;;3.35;;
74793;SDS011;63320;50.768;6.724;2024-01-27T07:00:20;13.60;;;2.88;;
74793;SDS011;63320;50.768;6.724;2024-01-27T07:02:45;12.95;;;3.20;;
74793;SDS011;63320;50.768;6.724;2024-01-27T07:05:11;11.52;;;2.75;;
74793;SDS011;63320;50.768;6.724;2024-01-27T07:07:36;17.17;;;2.90;;
74793;SDS011;63320;50.768;6.724;2024-01-27T07:10:02;8.55;;;2.92;;
74793;SDS011;63320;50.768;6.724;2024-01-27T07:12:28;9.13;;;2.40;;
74793;SDS011;63320;50.768;6.724;2024-01-27T07:14:54;7.95;;;2.35;;
74793;SDS011;63320;50.768;6.724;2024-01-27T07:17:19;10.45;;;3.00;;
74793;SDS011;63320;50.768;6.724;2024-01-27T07:19:45;13.07;;;3.38;;
74793;SDS011;63320;50.768;6.724;2024-01-27T07:22:10;15.60;;;3.97;;
74793;SDS011;63320;50.768;6.724;2024-01-27T07:24:36;11.60;;;2.70;;
74793;SDS011;63320;50.768;6.724;2024-01-27T07:27:01;12.05;;;3.10;;
74793;SDS011;63320;50.768;6.724;2024-01-27T07:29:27;11.88;;;2.67;;
74793;SDS011;63320;50.768;6.724;2024-01-27T07:31:54;12.65;;;3.95;;
74793;SDS011;63320;50.768;6.724;2024-01-27T07:34:19;10.43;;;2.50;;
74793;SDS011;63320;50.768;6.724;2024-01-27T07:36:44;9.38;;;2.40;;
74793;SDS011;63320;50.768;6.724;2024-01-27T07:39:10;13.70;;;2.60;;
74793;SDS011;63320;50.768;6.724;2024-01-27T07:41:35;11.73;;;2.63;;
74793;SDS011;63320;50.768;6.724;2024-01-27T07:44:06;11.85;;;2.70;;
74793;SDS011;63320;50.768;6.724;2024-01-27T07:46:32;8.68;;;2.38;;
74793;SDS011;63320;50.768;6.724;2024-01-27T07:48:59;10.18;;;2.50;;
74793;SDS011;63320;50.768;6.724;2024-01-27T07:51:24;13.30;;;3.10;;
74793;SDS011;63320;50.768;6.724;2024-01-27T07:53:49;12.15;;;3.35;;
74793;SDS011;63320;50.768;6.724;2024-01-27T07:56:14;13.10;;;2.97;;
74793;SDS011;63320;50.768;6.724;2024-01-27T07:58:40;12.32;;;2.80;;
74793;SDS011;63320;50.768;6.724;2024-01-27T08:01:05;13.98;;;3.97;;
74793;SDS011;63320;50.768;6.724;2024-01-27T08:03:30;10.65;;;3.42;;
74793;SDS011;63320;50.768;6.724;2024-01-27T08:05:57;11.85;;;3.30;;
74793;SDS011;63320;50.768;6.724;2024-01-27T08:08:22;14.02;;;3.05;;
74793;SDS011;63320;50.768;6.724;2024-01-27T08:10:48;17.90;;;2.92;;
74793;SDS011;63320;50.768;6.724;2024-01-27T08:13:13;15.90;;;3.47;;
74793;SDS011;63320;50.768;6.724;2024-01-27T08:15:38;14.32;;;2.60;;
74793;SDS011;63320;50.768;6.724;2024-01-27T08:18:04;12.15;;;2.67;;
74793;SDS011;63320;50.768;6.724;2024-01-27T08:20:29;11.15;;;2.80;;
74793;SDS011;63320;50.768;6.724;2024-01-27T08:22:56;8.77;;;2.75;;
74793;SDS011;63320;50.768;6.724;2024-01-27T08:25:21;9.23;;;2.17;;
74793;SDS011;63320;50.768;6.724;2024-01-27T08:27:47;14.55;;;3.20;;
74793;SDS011;63320;50.768;6.724;2024-01-27T08:30:12;15.05;;;2.97;;
74793;SDS011;63320;50.768;6.724;2024-01-27T08:32:38;11.65;;;2.20;;
74793;SDS011;63320;50.768;6.724;2024-01-27T08:35:04;9.63;;;2.60;;
74793;SDS011;63320;50.768;6.724;2024-01-27T08:37:30;12.60;;;2.47;;
74793;SDS011;63320;50.768;6.724;2024-01-27T08:39:56;8.90;;;2.80;;
74793;SDS011;63320;50.768;6.724;2024-01-27T08:42:22;13.98;;;4.20;;
74793;SDS011;63320;50.768;6.724;2024-01-27T08:44:47;12.77;;;2.40;;
74793;SDS011;63320;50.768;6.724;2024-01-27T08:47:12;10.90;;;2.28;;
74793;SDS011;63320;50.768;6.724;2024-01-27T08:49:38;11.90;;;2.10;;
74793;SDS011;63320;50.768;6.724;2024-01-27T08:52:03;12.77;;;2.40;;
74793;SDS011;63320;50.768;6.724;2024-01-27T08:54:29;11.07;;;2.42;;
74793;SDS011;63320;50.768;6.724;2024-01-27T08:56:55;10.40;;;2.63;;
74793;SDS011;63320;50.768;6.724;2024-01-27T08:59:21;9.75;;;2.42;;
74793;SDS011;63320;50.768;6.724;2024-01-27T09:01:46;7.55;;;2.00;;
74793;SDS011;63320;50.768;6.724;2024-01-27T09:04:11;10.48;;;2.40;;
74793;SDS011;63320;50.768;6.724;2024-01-27T09:06:37;14.63;;;3.10;;
74793;SDS011;63320;50.768;6.724;2024-01-27T09:09:02;10.13;;;2.60;;
74793;SDS011;63320;50.768;6.724;2024-01-27T09:11:27;12.27;;;2.60;;
74793;SDS011;63320;50.768;6.724;2024-01-27T09:13:54;9.68;;;2.00;;
74793;SDS011;63320;50.768;6.724;2024-01-27T09:16:20;12.07;;;2.85;;
74793;SDS011;63320;50.768;6.724;2024-01-27T09:18:45;10.60;;;2.72;;
74793;SDS011;63320;50.768;6.724;2024-01-27T09:21:11;14.38;;;2.55;;
74793;SDS011;63320;50.768;6.724;2024-01-27T09:23:36;17.73;;;3.00;;
74793;SDS011;63320;50.768;6.724;2024-01-27T09:26:01;9.80;;;2.15;;
74793;SDS011;63320;50.768;6.724;2024-01-27T09:28:27;11.40;;;3.28;;
74793;SDS011;63320;50.768;6.724;2024-01-27T09:30:53;8.32;;;2.95;;
74793;SDS011;63320;50.768;6.724;2024-01-27T09:33:19;14.88;;;2.50;;
74793;SDS011;63320;50.768;6.724;2024-01-27T09:35:44;9.40;;;2.35;;
74793;SDS011;63320;50.768;6.724;2024-01-27T09:38:10;11.73;;;2.08;;
74793;SDS011;63320;50.768;6.724;2024-01-27T09:40:35;11.98;;;2.42;;
74793;SDS011;63320;50.768;6.724;2024-01-27T09:43:00;11.68;;;2.53;;
74793;SDS011;63320;50.768;6.724;2024-01-27T09:45:26;11.25;;;2.83;;
74793;SDS011;63320;50.768;6.724;2024-01-27T09:47:53;13.55;;;2.80;;
74793;SDS011;63320;50.768;6.724;2024-01-27T09:50:21;9.85;;;2.53;;
74793;SDS011;63320;50.768;6.724;2024-01-27T09:52:47;13.82;;;3.10;;
74793;SDS011;63320;50.768;6.724;2024-01-27T09:55:13;14.40;;;2.70;;
74793;SDS011;63320;50.768;6.724;2024-01-27T09:57:38;13.50;;;2.65;;
74793;SDS011;63320;50.768;6.724;2024-01-27T10:00:06;12.73;;;2.75;;
74793;SDS011;63320;50.768;6.724;2024-01-27T10:02:35;13.88;;;3.08;;
74793;SDS011;63320;50.768;6.724;2024-01-27T10:05:04;13.90;;;2.85;;
74793;SDS011;63320;50.768;6.724;2024-01-27T10:07:31;13.02;;;2.92;;
74793;SDS011;63320;50.768;6.724;2024-01-27T10:09:57;9.82;;;2.17;;
74793;SDS011;63320;50.768;6.724;2024-01-27T10:12:22;15.10;;;3.47;;
74793;SDS011;63320;50.768;6.724;2024-01-27T10:14:50;7.78;;;1.75;;
74793;SDS011;63320;50.768;6.724;2024-01-27T10:17:20;11.93;;;2.25;;
74793;SDS011;63320;50.768;6.724;2024-01-27T10:19:46;8.95;;;2.22;;
74793;SDS011;63320;50.768;6.724;2024-01-27T10:22:12;11.25;;;2.38;;
74793;SDS011;63320;50.768;6.724;2024-01-27T10:24:38;11.65;;;2.50;;
74793;SDS011;63320;50.768;6.724;2024-01-27T10:27:03;13.35;;;2.53;;
74793;SDS011;63320;50.768;6.724;2024-01-27T10:29:29;12.85;;;2.63;;
74793;SDS011;63320;50.768;6.724;2024-01-27T10:31:54;11.10;;;1.88;;
74793;SDS011;63320;50.768;6.724;2024-01-27T10:34:20;9.77;;;2.08;;
74793;SDS011;63320;50.768;6.724;2024-01-27T10:36:45;12.05;;;2.22;;
74793;SDS011;63320;50.768;6.724;2024-01-27T10:39:17;11.82;;;1.70;;
74793;SDS011;63320;50.768;6.724;2024-01-27T10:41:43;9.77;;;2.10;;
74793;SDS011;63320;50.768;6.724;2024-01-27T10:44:10;13.25;;;2.03;;
74793;SDS011;63320;50.768;6.724;2024-01-27T10:46:38;9.82;;;1.65;;
74793;SDS011;63320;50.768;6.724;2024-01-27T10:49:04;8.43;;;1.67;;
74793;SDS011;63320;50.768;6.724;2024-01-27T10:51:32;12.18;;;1.63;;
74793;SDS011;63320;50.768;6.724;2024-01-27T10:54:01;11.13;;;2.08;;
74793;SDS011;63320;50.768;6.724;2024-01-27T10:56:28;13.68;;;1.63;;
74793;SDS011;63320;50.768;6.724;2024-01-27T10:58:54;10.23;;;1.80;;
74793;SDS011;63320;50.768;6.724;2024-01-27T11:01:22;11.93;;;2.40;;
74793;SDS011;63320;50.768;6.724;2024-01-27T11:03:47;10.23;;;1.75;;
74793;SDS011;63320;50.768;6.724;2024-01-27T11:06:13;11.30;;;2.55;;
74793;SDS011;63320;50.768;6.724;2024-01-27T11:08:40;10.52;;;1.60;;
74793;SDS011;63320;50.768;6.724;2024-01-27T11:11:06;11.20;;;1.67;;
74793;SDS011;63320;50.768;6.724;2024-01-27T11:13:33;11.07;;;2.35;;
74793;SDS011;63320;50.768;6.724;2024-01-27T11:15:58;9.25;;;1.75;;
74793;SDS011;63320;50.768;6.724;2024-01-27T11:18:24;11.55;;;3.15;;
74793;SDS011;63320;50.768;6.724;2024-01-27T11:20:52;12.93;;;1.95;;
74793;SDS011;63320;50.768;6.724;2024-01-27T11:23:18;9.50;;;1.33;;
74793;SDS011;63320;50.768;6.724;2024-01-27T11:25:43;6.93;;;1.60;;
74793;SDS011;63320;50.768;6.724;2024-01-27T11:28:12;11.32;;;1.50;;
74793;SDS011;63320;50.768;6.724;2024-01-27T11:30:41;12.05;;;1.90;;
74793;SDS011;63320;50.768;6.724;2024-01-27T11:33:10;8.82;;;1.70;;
74793;SDS011;63320;50.768;6.724;2024-01-27T11:35:35;11.20;;;1.95;;
74793;SDS011;63320;50.768;6.724;2024-01-27T11:38:01;11.02;;;2.00;;
74793;SDS011;63320;50.768;6.724;2024-01-27T11:40:26;10.77;;;1.95;;
74793;SDS011;63320;50.768;6.724;2024-01-27T11:42:55;9.80;;;1.80;;
74793;SDS011;63320;50.768;6.724;2024-01-27T11:45:20;8.98;;;1.60;;
74793;SDS011;63320;50.768;6.724;2024-01-27T11:47:47;10.23;;;2.03;;
74793;SDS011;63320;50.768;6.724;2024-01-27T11:50:12;10.15;;;1.75;;
74793;SDS011;63320;50.768;6.724;2024-01-27T11:52:38;10.50;;;1.52;;
74793;SDS011;63320;50.768;6.724;2024-01-27T11:55:03;9.95;;;1.75;;
74793;SDS011;63320;50.768;6.724;2024-01-27T11:57:29;8.65;;;1.98;;
74793;SDS011;63320;50.768;6.724;2024-01-27T11:59:55;6.78;;;1.58;;
74793;SDS011;63320;50.768;6.724;2024-01-27T12:02:20;6.53;;;1.60;;
74793;SDS011;63320;50.768;6.724;2024-01-27T12:04:47;7.60;;;1.90;;
74793;SDS011;63320;50.768;6.724;2024-01-27T12:07:13;9.63;;;1.88;;
74793;SDS011;63320;50.768;6.724;2024-01-27T12:09:39;11.10;;;1.83;;
74793;SDS011;63320;50.768;6.724;2024-01-27T12:12:05;9.10;;;1.30;;
74793;SDS011;63320;50.768;6.724;2024-01-27T12:14:37;10.40;;;1.77;;
74793;SDS011;63320;50.768;6.724;2024-01-27T12:17:03;7.32;;;1.65;;
74793;SDS011;63320;50.768;6.724;2024-01-27T12:19:28;7.05;;;1.60;;
74793;SDS011;63320;50.768;6.724;2024-01-27T12:21:55;12.52;;;1.42;;
74793;SDS011;63320;50.768;6.724;2024-01-27T12:24:20;9.32;;;2.33;;
74793;SDS011;63320;50.768;6.724;2024-01-27T12:26:46;10.02;;;2.20;;
74793;SDS011;63320;50.768;6.724;2024-01-27T12:29:11;12.07;;;1.90;;
74793;SDS011;63320;50.768;6.724;2024-01-27T12:31:36;9.48;;;2.08;;
74793;SDS011;63320;50.768;6.724;2024-01-27T12:34:02;11.27;;;2.47;;
74793;SDS011;63320;50.768;6.724;2024-01-27T12:36:28;11.32;;;2.55;;
74793;SDS011;63320;50.768;6.724;2024-01-27T12:38:55;9.68;;;1.67;;
74793;SDS011;63320;50.768;6.724;2024-01-27T12:41:22;11.18;;;2.03;;
74793;SDS011;63320;50.768;6.724;2024-01-27T12:43:47;8.93;;;2.35;;
74793;SDS011;63320;50.768;6.724;2024-01-27T12:46:13;11.18;;;1.80;;
74793;SDS011;63320;50.768;6.724;2024-01-27T12:48:38;9.25;;;2.22;;
74793;SDS011;63320;50.768;6.724;2024-01-27T12:51:03;9.18;;;1.70;;
74793;SDS011;63320;50.768;6.724;2024-01-27T12:53:29;6.72;;;1.77;;
74793;SDS011;63320;50.768;6.724;2024-01-27T12:55:56;11.88;;;1.80;;
74793;SDS011;63320;50.768;6.724;2024-01-27T12:58:21;9.15;;;2.00;;
74793;SDS011;63320;50.768;6.724;2024-01-27T13:00:47;9.98;;;1.90;;
74793;SDS011;63320;50.768;6.724;2024-01-27T13:03:12;13.57;;;2.47;;
74793;SDS011;63320;50.768;6.724;2024-01-27T13:05:38;11.45;;;1.85;;
74793;SDS011;63320;50.768;6.724;2024-01-27T13:08:03;12.20;;;2.50;;
74793;SDS011;63320;50.768;6.724;2024-01-27T13:10:29;8.38;;;1.90;;
74793;SDS011;63320;50.768;6.724;2024-01-27T13:12:56;9.82;;;2.05;;
74793;SDS011;63320;50.768;6.724;2024-01-27T13:15:21;9.15;;;1.90;;
74793;SDS011;63320;50.768;6.724;2024-01-27T13:17:47;12.65;;;1.80;;
74793;SDS011;63320;50.768;6.724;2024-01-27T13:20:12;6.95;;;1.60;;
74793;SDS011;63320;50.768;6.724;2024-01-27T13:22:37;13.02;;;2.00;;
74793;SDS011;63320;50.768;6.724;2024-01-27T13:25:03;12.13;;;2.13;;
74793;SDS011;63320;50.768;6.724;2024-01-27T13:27:29;6.38;;;1.40;;
74793;SDS011;63320;50.768;6.724;2024-01-27T13:29:55;9.05;;;1.67;;
74793;SDS011;63320;50.768;6.724;2024-01-27T13:32:21;9.40;;;1.55;;
74793;SDS011;63320;50.768;6.724;2024-01-27T13:34:46;8.63;;;1.50;;
74793;SDS011;63320;50.768;6.724;2024-01-27T13:37:11;9.00;;;1.75;;
74793;SDS011;63320;50.768;6.724;2024-01-27T13:39:37;9.50;;;1.80;;
74793;SDS011;63320;50.768;6.724;2024-01-27T13:42:02;24.85;;;2.47;;
74793;SDS011;63320;50.768;6.724;2024-01-27T13:44:28;7.65;;;1.60;;
74793;SDS011;63320;50.768;6.724;2024-01-27T13:46:55;9.27;;;1.75;;
74793;SDS011;63320;50.768;6.724;2024-01-27T13:49:20;10.35;;;2.20;;
74793;SDS011;63320;50.768;6.724;2024-01-27T13:51:45;9.25;;;1.83;;
74793;SDS011;63320;50.768;6.724;2024-01-27T13:54:11;8.88;;;1.70;;
74793;SDS011;63320;50.768;6.724;2024-01-27T13:56:36;9.77;;;2.10;;
74793;SDS011;63320;50.768;6.724;2024-01-27T13:59:01;9.35;;;1.80;;
74793;SDS011;63320;50.768;6.724;2024-01-27T14:01:27;12.25;;;2.20;;
74793;SDS011;63320;50.768;6.724;2024-01-27T14:03:53;7.93;;;1.73;;
74793;SDS011;63320;50.768;6.724;2024-01-27T14:06:19;9.02;;;1.90;;
74793;SDS011;63320;50.768;6.724;2024-01-27T14:08:44;10.13;;;1.73;;
74793;SDS011;63320;50.768;6.724;2024-01-27T14:11:09;11.68;;;1.73;;
74793;SDS011;63320;50.768;6.724;2024-01-27T14:13:35;11.82;;;2.30;;
74793;SDS011;63320;50.768;6.724;2024-01-27T14:16:00;7.70;;;1.50;;
74793;SDS011;63320;50.768;6.724;2024-01-27T14:18:25;11.18;;;2.30;;
74793;SDS011;63320;50.768;6.724;2024-01-27T14:20:52;10.05;;;1.85;;
74793;SDS011;63320;50.768;6.724;2024-01-27T14:23:17;10.07;;;2.20;;
74793;SDS011;63320;50.768;6.724;2024-01-27T14:25:43;9.93;;;2.55;;
74793;SDS011;63320;50.768;6.724;2024-01-27T14:28:08;8.95;;;2.03;;